Time;durP1;ratioP1;P1;durP2;ratioP2;P2;SDS_P1;SDS_P2;PMS_P1;PMS_P2;Temp;Humidity;BMP_temperature;BMP_pressure;BME280_temperature;BME280_humidity;BME280_pressure;Samples;Min_cycle;Max_cycle;Signal;HPM_P1;HPM_P2
2023/12/23 00:01:17;;;;;;;5.70;1.70;;;;;;;13.44;34.44;97503.84;105101;1260;59586;-66
2023/12/23 00:03:45;;;;;;;3.50;1.10;;;;;;;13.39;34.29;97503.63;105258;1254;62960;-65
2023/12/23 00:06:13;;;;;;;7.10;2.40;;;;;;;13.34;34.38;97506.66;105351;1254;61438;-64
2023/12/23 00:08:41;;;;;;;7.30;1.50;;;;;;;13.29;34.47;97502.31;105306;1257;63731;-67
2023/12/23 00:11:08;;;;;;;6.70;2.50;;;;;;;13.25;34.41;97499.94;105333;1260;59877;-61
2023/12/23 00:13:36;;;;;;;5.10;2.70;;;;;;;13.18;34.50;97507.27;105296;1259;59570;-64
2023/12/23 00:16:04;;;;;;;6.60;1.70;;;;;;;13.13;34.55;97513.87;105327;1257;64160;-66
2023/12/23 00:18:31;;;;;;;4.90;1.20;;;;;;;13.13;34.44;97508.70;105254;1257;61340;-61
2023/12/23 00:20:59;;;;;;;7.40;1.80;;;;;;;13.18;34.44;97504.30;105308;1254;63788;-62
2023/12/23 00:23:27;;;;;;;6.00;1.70;;;;;;;13.22;34.45;97506.12;105296;1260;59758;-62
2023/12/23 00:25:54;;;;;;;3.00;1.40;;;;;;;13.26;34.46;97500.95;105293;1259;60052;-62
2023/12/23 00:28:22;;;;;;;5.40;1.70;;;;;;;13.30;34.41;97502.60;105273;1257;63095;-61
2023/12/23 00:30:50;;;;;;;5.10;2.00;;;;;;;13.28;34.15;97505.39;105310;1254;61859;-63
2023/12/23 00:33:19;;;;;;;5.50;2.00;;;;;;;13.25;34.22;97496.55;105319;1257;64133;-62
2023/12/23 00:35:46;;;;;;;7.40;2.70;;;;;;;13.21;34.21;97492.03;105298;1259;60555;-63
2023/12/23 00:38:14;;;;;;;7.20;1.70;;;;;;;13.16;34.27;97497.24;105238;1254;60923;-64
2023/12/23 00:40:43;;;;;;;7.50;1.50;;;;;;;13.07;34.21;97504.46;105400;1257;64953;-61
2023/12/23 00:43:11;;;;;;;7.20;2.10;;;;;;;12.99;34.31;97511.30;105386;1254;60387;-61
2023/12/23 00:45:38;;;;;;;8.80;1.40;;;;;;;12.96;34.47;97512.02;105285;1254;63718;-64
2023/12/23 00:48:07;;;;;;;4.00;1.50;;;;;;;12.95;34.44;97513.58;105271;1255;60551;-64
2023/12/23 00:50:35;;;;;;;5.00;1.60;;;;;;;12.95;34.51;97510.86;105544;1258;60472;-61
2023/12/23 00:53:03;;;;;;;4.20;1.30;;;;;;;12.96;34.42;97508.70;105215;1260;65081;-63
2023/12/23 00:55:31;;;;;;;4.90;1.70;;;;;;;13.03;34.37;97516.22;105566;1254;60523;-63
2023/12/23 00:57:58;;;;;;;6.70;2.20;;;;;;;13.11;34.26;97518.15;105270;1259;63779;-63
2023/12/23 01:00:26;;;;;;;3.50;1.10;;;;;;;13.17;34.13;97520.80;105223;1260;60367;-62
2023/12/23 01:02:54;;;;;;;8.30;2.50;;;;;;;13.23;34.12;97523.83;105664;1259;60404;-62
2023/12/23 01:05:21;;;;;;;4.90;1.60;;;;;;;13.24;34.12;97527.96;105244;1256;64922;-60
2023/12/23 01:07:49;;;;;;;16.00;3.60;;;;;;;13.25;34.11;97528.77;105335;1260;60373;-62
2023/12/23 01:10:21;;;;;;;8.90;1.50;;;;;;;13.26;34.03;97527.55;105313;1254;63719;-66
2023/12/23 01:12:49;;;;;;;3.70;1.20;;;;;;;13.27;33.98;97524.10;105308;1259;60555;-62
2023/12/23 01:15:17;;;;;;;5.80;1.10;;;;;;;13.26;33.97;97522.47;105296;1257;60356;-65
2023/12/23 01:17:45;;;;;;;5.30;1.20;;;;;;;13.25;33.93;97524.17;105450;1257;64871;-63
2023/12/23 01:20:13;;;;;;;3.60;1.10;;;;;;;13.24;34.05;97521.10;105350;1260;60412;-60
2023/12/23 01:22:41;;;;;;;5.40;1.20;;;;;;;13.23;33.94;97520.78;105283;1254;63807;-59
2023/12/23 01:25:08;;;;;;;5.30;1.10;;;;;;;13.22;34.00;97521.23;105508;1259;60532;-62
2023/12/23 01:27:36;;;;;;;4.60;1.20;;;;;;;13.25;33.95;97518.63;105212;1260;60491;-61
2023/12/23 01:30:05;;;;;;;4.70;1.20;;;;;;;13.28;33.97;97511.78;105342;1258;65477;-63
2023/12/23 01:32:32;;;;;;;7.20;1.20;;;;;;;13.34;33.95;97513.23;105655;1260;61598;-62
2023/12/23 01:35:00;;;;;;;4.60;1.10;;;;;;;13.42;33.89;97512.88;105280;1260;62459;-63
2023/12/23 01:37:28;;;;;;;4.30;1.60;;;;;;;13.45;33.83;97512.29;105264;1258;60476;-61
2023/12/23 01:39:55;;;;;;;8.10;1.80;;;;;;;13.46;34.02;97514.84;105349;1259;60325;-63
2023/12/23 01:42:23;;;;;;;5.70;1.40;;;;;;;13.45;33.90;97511.06;105329;1257;63729;-64
2023/12/23 01:44:51;;;;;;;6.50;1.40;;;;;;;13.46;33.94;97508.70;105301;1254;61355;-62
2023/12/23 01:47:18;;;;;;;4.80;1.60;;;;;;;13.47;33.94;97508.90;105910;1257;64399;-65
2023/12/23 01:49:46;;;;;;;3.10;0.70;;;;;;;13.48;33.89;97502.96;105349;1253;61413;-67
2023/12/23 01:52:14;;;;;;;6.60;1.20;;;;;;;13.47;33.92;97500.28;105308;1260;60539;-66
2023/12/23 01:54:42;;;;;;;6.00;1.90;;;;;;;13.44;33.94;97493.15;105283;1259;64874;-68
2023/12/23 01:57:09;;;;;;;5.70;2.70;;;;;;;13.39;33.94;97493.58;105326;1259;61342;-66
2023/12/23 01:59:37;;;;;;;7.80;1.30;;;;;;;13.42;33.89;97487.44;105282;1257;63690;-60
2023/12/23 02:02:04;;;;;;;3.10;1.20;;;;;;;13.49;33.88;97485.11;105340;1260;60651;-62
2023/12/23 02:04:33;;;;;;;6.20;1.50;;;;;;;13.55;33.90;97485.77;105117;1260;60373;-64
2023/12/23 02:07:01;;;;;;;8.60;1.20;;;;;;;13.61;33.82;97485.71;105556;1260;64880;-60
2023/12/23 02:09:28;;;;;;;5.80;2.10;;;;;;;13.64;33.83;97478.80;105251;1260;60469;-61
2023/12/23 02:12:07;;;;;;;6.00;1.70;;;;;;;13.66;33.72;97479.65;105757;1262;64243;-60
2023/12/23 02:14:36;;;;;;;4.40;1.30;;;;;;;13.65;33.85;97474.58;105552;1255;60549;-62
2023/12/23 02:17:04;;;;;;;6.20;1.60;;;;;;;13.64;33.80;97471.13;106435;1260;60428;-61
2023/12/23 02:19:32;;;;;;;4.20;1.10;;;;;;;13.64;33.93;97474.30;105311;1260;64980;-67
2023/12/23 02:21:59;;;;;;;6.90;1.40;;;;;;;13.64;33.82;97470.60;105313;1260;61323;-63
2023/12/23 02:24:27;;;;;;;6.60;1.60;;;;;;;13.64;33.82;97466.33;105299;1254;62441;-63
2023/12/23 02:26:58;;;;;;;6.80;1.50;;;;;;;13.66;33.81;97468.92;105294;1257;60556;-66
2023/12/23 02:29:26;;;;;;;5.40;1.40;;;;;;;13.72;33.71;97470.14;105821;1259;60507;-64
2023/12/23 02:31:54;;;;;;;2.70;1.30;;;;;;;13.84;33.56;97467.70;105804;1260;73784;-64
2023/12/23 02:34:22;;;;;;;4.70;1.10;;;;;;;13.88;33.59;97462.45;105240;1263;60370;-63
2023/12/23 02:36:49;;;;;;;5.10;1.20;;;;;;;13.89;33.64;97462.33;105297;1260;63759;-60
2023/12/23 02:39:17;;;;;;;6.50;1.70;;;;;;;13.90;33.67;97460.77;105203;1260;61179;-63
2023/12/23 02:41:45;;;;;;;7.90;2.50;;;;;;;13.91;33.69;97459.30;105422;1259;61148;-64
2023/12/23 02:44:13;;;;;;;4.90;0.90;;;;;;;13.88;33.63;97455.95;105281;1254;65006;-61
2023/12/23 02:46:40;;;;;;;2.40;0.90;;;;;;;13.82;33.72;97451.94;105410;1259;61419;-62
2023/12/23 02:49:08;;;;;;;4.20;1.00;;;;;;;13.76;33.76;97455.35;105402;1260;63722;-65
2023/12/23 02:51:36;;;;;;;4.20;1.70;;;;;;;13.79;33.74;97453.53;105429;1254;61012;-65
2023/12/23 02:54:04;;;;;;;4.60;1.60;;;;;;;13.83;33.81;97450.83;105196;1259;60627;-60
2023/12/23 02:56:31;;;;;;;4.50;1.50;;;;;;;13.87;33.62;97449.04;105764;1260;64836;-65
2023/12/23 02:58:59;;;;;;;5.20;1.60;;;;;;;13.88;33.64;97451.21;105674;1254;61519;-60
2023/12/23 03:01:27;;;;;;;3.90;1.00;;;;;;;13.86;33.77;97449.73;105803;1260;66264;-62
2023/12/23 03:03:55;;;;;;;6.30;1.80;;;;;;;13.83;33.72;97448.02;105811;1259;60425;-64
2023/12/23 03:06:23;;;;;;;4.20;1.10;;;;;;;13.81;33.82;97454.91;105290;1260;60447;-61
2023/12/23 03:08:50;;;;;;;5.50;1.50;;;;;;;13.78;33.83;97453.30;105329;1255;64926;-61
2023/12/23 03:11:19;;;;;;;5.30;1.10;;;;;;;13.74;33.90;97454.18;105735;1260;61322;-64
2023/12/23 03:13:46;;;;;;;5.80;2.30;;;;;;;13.70;33.90;97456.57;105240;1257;63891;-66
2023/12/23 03:16:17;;;;;;;6.20;2.10;;;;;;;13.61;33.82;97452.65;105316;1257;60818;-62
2023/12/23 03:18:45;;;;;;;6.00;1.20;;;;;;;13.61;33.94;97453.19;105386;1268;60364;-62
2023/12/23 03:21:13;;;;;;;5.20;1.00;;;;;;;13.65;34.01;97450.38;105276;1261;65258;-60
2023/12/23 03:23:41;;;;;;;3.10;0.90;;;;;;;13.71;33.96;97457.59;105410;1260;62672;-63
2023/12/23 03:26:09;;;;;;;5.60;1.60;;;;;;;13.75;33.98;97454.22;105310;1260;63745;-62
2023/12/23 03:28:37;;;;;;;4.90;1.10;;;;;;;13.78;33.87;97453.51;105305;1255;60488;-61
2023/12/23 03:31:04;;;;;;;4.40;1.10;;;;;;;13.78;33.90;97457.41;105276;1255;60565;-61
2023/12/23 03:33:32;;;;;;;5.70;1.10;;;;;;;13.78;33.89;97462.48;105186;1255;64975;-62
2023/12/23 03:35:59;;;;;;;4.40;1.70;;;;;;;13.76;33.96;97464.38;105235;1265;60384;-60
2023/12/23 03:38:27;;;;;;;9.00;1.90;;;;;;;13.75;33.94;97467.52;105333;1258;66533;-66
2023/12/23 03:40:54;;;;;;;3.90;1.20;;;;;;;13.75;33.90;97468.64;105244;1257;60491;-66
2023/12/23 03:43:22;;;;;;;3.40;1.40;;;;;;;13.71;33.84;97470.35;105921;1260;60562;-68
2023/12/23 03:45:50;;;;;;;13.00;1.40;;;;;;;13.66;33.87;97471.03;105182;1255;64865;-62
2023/12/23 03:48:17;;;;;;;4.30;1.10;;;;;;;13.66;34.10;97467.34;105260;1260;61413;-61
2023/12/23 03:50:45;;;;;;;5.50;0.80;;;;;;;13.70;34.04;97467.95;105297;1267;62516;-60
2023/12/23 03:53:14;;;;;;;3.50;1.10;;;;;;;13.79;34.06;97471.55;105414;1260;60520;-62
2023/12/23 03:55:42;;;;;;;2.20;0.50;;;;;;;13.86;33.90;97475.44;105433;1255;60414;-64
2023/12/23 03:58:10;;;;;;;3.50;1.00;;;;;;;13.89;33.82;97475.54;105219;1254;63688;-62
2023/12/23 04:00:37;;;;;;;3.40;0.90;;;;;;;13.91;33.82;97474.55;105306;1260;61405;-60
2023/12/23 04:03:05;;;;;;;5.40;1.20;;;;;;;13.91;33.82;97478.65;105318;1261;62569;-61
2023/12/23 04:05:33;;;;;;;5.00;1.00;;;;;;;13.89;33.78;97479.89;105617;1257;60451;-65
2023/12/23 04:08:00;;;;;;;5.30;1.30;;;;;;;13.86;33.72;97481.77;105245;1255;60443;-62
2023/12/23 04:10:28;;;;;;;4.30;1.30;;;;;;;13.82;33.82;97485.50;105254;1260;63716;-62
2023/12/23 04:12:56;;;;;;;7.80;2.00;;;;;;;13.84;33.87;97486.56;105221;1263;63752;-64
2023/12/23 04:15:24;;;;;;;6.20;0.90;;;;;;;13.83;33.86;97488.06;105839;1257;63887;-60
2023/12/23 04:17:52;;;;;;;3.70;1.00;;;;;;;13.81;33.85;97489.55;106062;1258;60559;-63
2023/12/23 04:20:20;;;;;;;6.40;1.80;;;;;;;13.87;33.80;97487.95;105270;1262;60519;-62
2023/12/23 04:22:48;;;;;;;8.10;1.30;;;;;;;13.92;33.84;97492.02;105301;1254;63792;-61
2023/12/23 04:25:16;;;;;;;2.10;0.50;;;;;;;13.98;33.77;97489.09;105462;1260;61454;-59
2023/12/23 04:27:51;;;;;;;3.90;0.90;;;;;;;14.08;33.70;97492.96;105230;1260;62639;-62
2023/12/23 04:30:20;;;;;;;3.10;1.20;;;;;;;14.15;33.71;97492.74;105187;1256;60558;-61
2023/12/23 04:32:48;;;;;;;4.10;0.70;;;;;;;14.16;33.64;97491.02;105272;1260;60552;-61
2023/12/23 04:35:17;;;;;;;3.40;1.00;;;;;;;14.15;33.68;97496.80;105290;1260;64968;-60
2023/12/23 04:37:45;;;;;;;4.80;1.20;;;;;;;14.14;33.72;97499.05;105196;1260;63557;-60
2023/12/23 04:40:13;;;;;;;11.20;2.60;;;;;;;14.12;33.59;97497.73;105257;1260;63852;-59
2023/12/23 04:42:40;;;;;;;2.60;0.90;;;;;;;14.12;33.69;97502.64;105567;1260;60569;-60
2023/12/23 04:45:09;;;;;;;4.60;1.40;;;;;;;14.11;33.65;97505.95;105413;1261;60350;-60
2023/12/23 04:47:37;;;;;;;6.60;2.20;;;;;;;14.07;33.66;97507.48;105562;1261;64996;-59
2023/12/23 04:50:06;;;;;;;4.70;1.50;;;;;;;14.07;33.77;97510.98;105496;1254;61029;-61
2023/12/23 04:52:34;;;;;;;7.30;2.10;;;;;;;14.12;33.77;97511.59;105648;1254;63799;-60
2023/12/23 04:55:05;;;;;;;6.90;1.30;;;;;;;14.16;33.79;97518.32;105273;1261;60561;-59
2023/12/23 04:57:34;;;;;;;6.80;1.00;;;;;;;14.22;33.82;97516.23;105302;1254;60549;-59
2023/12/23 05:00:05;;;;;;;11.60;4.30;;;;;;;14.28;33.56;97515.25;105604;1254;63802;-63
2023/12/23 05:02:33;;;;;;;7.30;3.30;;;;;;;14.28;33.58;97517.10;105696;1261;60232;-60
2023/12/23 05:05:01;;;;;;;20.30;10.00;;;;;;;14.27;33.62;97515.74;105327;1260;62562;-60
2023/12/23 05:07:30;;;;;;;12.60;3.90;;;;;;;14.28;33.64;97522.66;105753;1254;60424;-62
2023/12/23 05:09:57;;;;;;;7.30;2.60;;;;;;;14.26;33.66;97517.58;105257;1254;60466;-59
2023/12/23 05:12:25;;;;;;;10.30;2.60;;;;;;;14.24;33.68;97525.80;105233;1260;63687;-60
2023/12/23 05:14:52;;;;;;;9.00;3.30;;;;;;;14.22;33.77;97529.86;105300;1260;61389;-59
2023/12/23 05:17:20;;;;;;;6.50;1.30;;;;;;;14.20;33.67;97530.23;105215;1258;63775;-58
2023/12/23 05:19:48;;;;;;;3.40;1.10;;;;;;;14.19;33.85;97537.56;105967;1257;60558;-59
2023/12/23 05:22:16;;;;;;;4.50;0.90;;;;;;;14.24;33.84;97538.39;105226;1254;60467;-60
2023/12/23 05:24:43;;;;;;;7.20;1.80;;;;;;;14.31;33.80;97538.94;105240;1259;64946;-60
2023/12/23 05:27:11;;;;;;;6.50;2.10;;;;;;;14.42;33.63;97542.27;105226;1255;61321;-59
2023/12/23 05:29:39;;;;;;;49.70;21.80;;;;;;;14.47;33.71;97538.80;105295;1254;64223;-64
2023/12/23 05:32:07;;;;;;;13.70;5.20;;;;;;;14.58;33.65;97541.16;105244;1260;60575;-61
2023/12/23 05:34:36;;;;;;;85.80;43.10;;;;;;;14.64;33.52;97547.92;105144;1260;60369;-62
2023/12/23 05:37:03;;;;;;;98.70;42.40;;;;;;;14.75;33.19;97554.61;105273;1254;76015;-67
2023/12/23 05:39:32;;;;;;;35.90;15.70;;;;;;;14.78;33.08;97553.41;105497;1260;61366;-61
2023/12/23 05:42:00;;;;;;;34.90;18.70;;;;;;;14.76;33.09;97551.96;105367;1257;62482;-62
2023/12/23 05:44:27;;;;;;;12.00;5.60;;;;;;;14.73;33.10;97556.80;105761;1260;60501;-64
2023/12/23 05:46:55;;;;;;;9.40;3.80;;;;;;;14.68;33.14;97560.25;105904;1255;59257;-64
2023/12/23 05:49:23;;;;;;;5.60;2.00;;;;;;;14.62;33.34;97563.86;105408;1260;64900;-63
2023/12/23 05:51:52;;;;;;;5.70;1.90;;;;;;;14.65;33.23;97569.98;105598;1259;61507;-63
2023/12/23 05:54:20;;;;;;;4.80;1.50;;;;;;;14.73;33.19;97568.94;105904;1255;64144;-62
2023/12/23 05:56:47;;;;;;;2.70;0.70;;;;;;;14.77;33.17;97567.91;105962;1260;60450;-65
2023/12/23 05:59:15;;;;;;;6.20;1.30;;;;;;;14.81;33.11;97576.70;105405;1260;60292;-65
2023/12/23 06:01:43;;;;;;;3.70;1.30;;;;;;;14.82;33.07;97584.14;105451;1253;65109;-66
2023/12/23 06:04:10;;;;;;;5.10;1.10;;;;;;;14.82;33.11;97585.52;105355;1256;61367;-67
2023/12/23 06:06:38;;;;;;;3.10;0.90;;;;;;;14.82;32.98;97588.22;105304;1254;63011;-56
2023/12/23 06:09:06;;;;;;;6.30;1.50;;;;;;;14.83;33.11;97590.89;105250;1260;60565;-61
2023/12/23 06:11:34;;;;;;;7.90;1.90;;;;;;;14.79;33.04;97594.36;105244;1254;60505;-60
2023/12/23 06:14:03;;;;;;;3.10;1.30;;;;;;;14.76;32.97;97594.60;105584;1259;64965;-59
2023/12/23 06:16:30;;;;;;;6.50;1.80;;;;;;;14.76;33.06;97598.83;105756;1260;61365;-61
2023/12/23 06:18:58;;;;;;;9.40;3.90;;;;;;;14.74;33.05;97596.48;105339;1260;62484;-61
2023/12/23 06:21:26;;;;;;;7.10;3.10;;;;;;;14.75;33.17;97598.46;105269;1258;60549;-61
2023/12/23 06:23:53;;;;;;;6.60;1.60;;;;;;;14.74;33.14;97604.79;105329;1260;60367;-60
2023/12/23 06:26:21;;;;;;;6.40;2.40;;;;;;;14.75;33.09;97606.05;105194;1260;64873;-61
2023/12/23 06:28:48;;;;;;;9.40;4.70;;;;;;;14.82;33.04;97609.77;105365;1257;60377;-61
2023/12/23 06:31:16;;;;;;;11.90;5.10;;;;;;;14.91;32.94;97615.90;105307;1256;63771;-62
2023/12/23 06:33:44;;;;;;;18.90;8.90;;;;;;;14.97;32.83;97615.56;105333;1260;60456;-60
2023/12/23 06:36:12;;;;;;;20.50;6.70;;;;;;;15.05;32.72;97618.51;105364;1254;60539;-62
2023/12/23 06:38:39;;;;;;;12.30;5.50;;;;;;;15.10;32.63;97618.74;105194;1261;64962;-60
2023/12/23 06:41:07;;;;;;;9.40;2.30;;;;;;;15.10;32.55;97616.84;105340;1261;60240;-61
2023/12/23 06:43:34;;;;;;;5.80;2.50;;;;;;;15.07;32.57;97621.83;105324;1254;63682;-65
2023/12/23 06:46:18;;;;;;;4.10;1.30;;;;;;;15.02;32.53;97623.83;105296;1254;60489;-64
2023/12/23 06:48:46;;;;;;;4.10;1.20;;;;;;;14.96;32.51;97623.31;105300;1260;60433;-66
2023/12/23 06:51:14;;;;;;;4.30;1.40;;;;;;;14.89;32.64;97624.04;105322;1260;65112;-62
2023/12/23 06:53:41;;;;;;;9.00;2.80;;;;;;;14.80;32.73;97626.96;105223;1254;61417;-60
2023/12/23 06:56:11;;;;;;;5.20;1.40;;;;;;;14.74;32.76;97629.58;105256;1260;62531;-62
2023/12/23 06:58:38;;;;;;;7.60;1.70;;;;;;;14.72;32.83;97632.26;105355;1260;60625;-62
2023/12/23 07:01:07;;;;;;;4.70;1.80;;;;;;;14.71;32.84;97633.40;105350;1254;60554;-62
2023/12/23 07:03:34;;;;;;;6.10;1.40;;;;;;;14.71;32.88;97636.20;105323;1260;64999;-64
2023/12/23 07:06:03;;;;;;;3.30;1.10;;;;;;;14.77;32.81;97635.26;105221;1254;61427;-65
2023/12/23 07:08:31;;;;;;;5.20;1.60;;;;;;;14.85;32.75;97637.02;105372;1257;63660;-60
2023/12/23 07:10:58;;;;;;;4.40;1.20;;;;;;;14.95;32.73;97639.02;105775;1257;60771;-62
2023/12/23 07:13:26;;;;;;;5.20;1.30;;;;;;;14.99;32.64;97645.96;105192;1260;60586;-63
2023/12/23 07:15:54;;;;;;;3.80;1.30;;;;;;;15.00;32.61;97648.00;105849;1254;63656;-63
2023/12/23 07:18:22;;;;;;;4.90;1.50;;;;;;;15.00;32.46;97650.81;105867;1254;61445;-61
2023/12/23 07:20:51;;;;;;;4.20;1.00;;;;;;;15.02;32.47;97653.09;105303;1260;62421;-63
2023/12/23 07:23:18;;;;;;;3.40;1.10;;;;;;;15.04;32.47;97650.34;105950;1254;60427;-62
2023/12/23 07:25:46;;;;;;;6.00;1.60;;;;;;;15.03;32.32;97652.70;105885;1256;60558;-64
2023/12/23 07:28:14;;;;;;;3.30;1.00;;;;;;;14.96;32.39;97651.70;105156;1254;63740;-61
2023/12/23 07:30:44;;;;;;;25.30;8.60;;;;;;;14.91;32.46;97651.85;105216;1254;61865;-64
2023/12/23 07:33:13;;;;;;;39.10;17.10;;;;;;;14.91;32.28;97656.48;105190;1258;63846;-63
2023/12/23 07:35:41;;;;;;;45.70;21.50;;;;;;;14.91;32.37;97654.23;105456;1254;60515;-62
2023/12/23 07:38:09;;;;;;;17.80;6.90;;;;;;;15.00;32.26;97660.83;105184;1257;60559;-66
2023/12/23 07:40:38;;;;;;;31.30;15.20;;;;;;;15.12;32.12;97658.70;105860;1255;64921;-64
2023/12/23 07:43:07;;;;;;;21.30;9.90;;;;;;;15.24;32.18;97657.71;105346;1257;61489;-63
2023/12/23 07:45:35;;;;;;;8.10;4.00;;;;;;;15.34;32.05;97658.83;105068;1260;63735;-62
2023/12/23 07:48:03;;;;;;;10.30;3.10;;;;;;;15.38;31.90;97658.09;105528;1260;60528;-61
2023/12/23 07:50:31;;;;;;;5.40;1.80;;;;;;;15.39;32.00;97660.20;105570;1259;60663;-62
2023/12/23 07:52:59;;;;;;;6.50;2.30;;;;;;;15.42;31.80;97668.06;105257;1254;64904;-62
2023/12/23 07:55:27;;;;;;;7.40;2.10;;;;;;;15.44;31.81;97666.14;105220;1260;61378;-66
2023/12/23 07:57:55;;;;;;;5.40;2.30;;;;;;;15.42;31.55;97664.48;105346;1258;63756;-63
2023/12/23 08:00:22;;;;;;;3.90;1.40;;;;;;;15.37;31.67;97664.46;105250;1258;60552;-61
2023/12/23 08:02:50;;;;;;;6.30;1.70;;;;;;;15.34;31.54;97664.21;105893;1259;60318;-62
2023/12/23 08:05:18;;;;;;;7.50;1.80;;;;;;;15.31;31.73;97667.66;105891;1255;64910;-63
2023/12/23 08:07:46;;;;;;;8.40;2.60;;;;;;;15.26;31.50;97669.34;105878;1260;60596;-62
2023/12/23 08:10:14;;;;;;;8.70;3.90;;;;;;;15.21;31.65;97675.10;105182;1255;62514;-65
2023/12/23 08:12:42;;;;;;;17.20;7.20;;;;;;;15.18;31.67;97678.47;105407;1258;60526;-65
2023/12/23 08:15:10;;;;;;;46.30;20.90;;;;;;;15.21;31.66;97682.76;105215;1260;60434;-65
2023/12/23 08:17:37;;;;;;;14.00;5.10;;;;;;;15.29;31.71;97688.96;105426;1254;63634;-64
2023/12/23 08:20:06;;;;;;;16.80;5.80;;;;;;;15.32;31.52;97688.02;105226;1259;61593;-65
2023/12/23 08:22:34;;;;;;;19.60;7.80;;;;;;;15.38;31.26;97684.15;105584;1257;63760;-62
2023/12/23 08:25:01;;;;;;;9.50;3.50;;;;;;;15.48;31.26;97684.08;105602;1254;60517;-63
2023/12/23 08:27:29;;;;;;;19.50;10.90;;;;;;;15.53;31.22;97685.05;105326;1258;60358;-61
2023/12/23 08:29:56;;;;;;;7.30;2.00;;;;;;;15.52;31.10;97687.95;105237;1259;64915;-66
2023/12/23 08:32:24;;;;;;;6.30;2.30;;;;;;;15.53;31.07;97689.25;105276;1254;61357;-63
2023/12/23 08:34:52;;;;;;;6.30;1.80;;;;;;;15.55;31.03;97688.36;105207;1257;63774;-62
2023/12/23 08:37:20;;;;;;;8.10;3.30;;;;;;;15.57;30.95;97686.66;105265;1258;60463;-63
2023/12/23 08:39:49;;;;;;;7.90;1.50;;;;;;;15.56;30.89;97689.73;106029;1254;201274;-64
2023/12/23 08:55:26;;;;;;;7.50;1.70;;;;;;;13.54;34.13;97698.09;102953;1283;604122;-64
2023/12/23 08:57:53;;;;;;;7.10;2.60;;;;;;;15.44;30.73;97697.33;104448;1270;67520;-63
2023/12/23 09:00:20;;;;;;;13.90;4.80;;;;;;;15.39;30.70;97697.95;105238;1265;59404;-63
2023/12/23 09:02:47;;;;;;;3.20;0.80;;;;;;;15.33;30.74;97701.11;104512;1272;65198;-61
2023/12/23 09:05:14;;;;;;;5.20;1.80;;;;;;;15.26;30.74;97699.99;104588;1266;61720;-66
2023/12/23 09:07:41;;;;;;;6.40;2.90;;;;;;;15.22;30.81;97694.85;104759;1268;64061;-64
2023/12/23 09:10:08;;;;;;;8.50;2.00;;;;;;;15.21;30.92;97694.41;104620;1268;59291;-65
2023/12/23 09:12:35;;;;;;;6.50;2.10;;;;;;;15.20;30.85;97690.08;104877;1267;59393;-64
2023/12/23 09:15:03;;;;;;;35.40;21.20;;;;;;;15.14;30.76;97689.96;104813;1269;63454;-65
2023/12/23 09:17:30;;;;;;;17.60;5.70;;;;;;;15.14;30.82;97689.80;104974;1271;61818;-66
2023/12/23 09:20:04;;;;;;;12.40;5.30;;;;;;;15.13;30.68;97693.97;104974;1269;64067;-62
2023/12/23 09:22:31;;;;;;;21.80;12.60;;;;;;;15.04;30.64;97692.86;104829;1269;59602;-63
2023/12/23 09:24:58;;;;;;;7.90;1.90;;;;;;;14.96;30.68;97691.88;104941;1267;61082;-64
2023/12/23 09:27:25;;;;;;;3.40;1.00;;;;;;;14.89;30.66;97704.64;105032;1269;73445;-64
2023/12/23 09:29:51;;;;;;;5.00;1.80;;;;;;;14.83;30.57;97702.28;107792;1268;61566;-65
2023/12/23 09:32:21;;;;;;;5.80;1.10;;;;;;;14.79;30.64;97703.25;104515;1268;64041;-65
2023/12/23 09:34:49;;;;;;;5.90;1.60;;;;;;;14.84;30.76;97701.73;104548;1267;59830;-66
2023/12/23 09:37:16;;;;;;;5.10;1.30;;;;;;;14.84;30.71;97700.90;104678;1267;59676;-64
2023/12/23 09:39:44;;;;;;;5.90;2.00;;;;;;;14.82;30.52;97695.53;105241;1262;64445;-65
2023/12/23 09:42:11;;;;;;;7.60;1.50;;;;;;;14.82;30.61;97698.50;104809;1260;60185;-65
2023/12/23 09:44:38;;;;;;;5.70;1.40;;;;;;;14.84;30.58;97698.81;108884;1257;73007;-64
2023/12/23 09:47:05;;;;;;;5.00;1.30;;;;;;;14.81;30.45;97695.86;107142;1261;59729;-67
2023/12/23 09:49:31;;;;;;;6.70;1.80;;;;;;;14.81;30.42;97696.11;104881;1262;59829;-66
2023/12/23 09:51:59;;;;;;;5.20;1.40;;;;;;;14.78;30.25;97697.39;105225;1263;64388;-64
2023/12/23 09:54:27;;;;;;;5.00;1.60;;;;;;;14.78;30.35;97702.48;106314;1260;61698;-61
2023/12/23 09:56:54;;;;;;;6.00;2.20;;;;;;;14.73;30.08;97703.55;105749;1263;64347;-65
2023/12/23 09:59:21;;;;;;;8.30;2.50;;;;;;;14.72;30.16;97700.61;105688;1260;59661;-60
2023/12/23 10:01:48;;;;;;;9.70;4.10;;;;;;;14.76;30.29;97695.37;105173;1257;59720;-61
2023/12/23 10:04:15;;;;;;;5.90;1.40;;;;;;;14.76;30.21;97693.80;105086;1258;64234;-62
2023/12/23 10:06:43;;;;;;;8.40;1.80;;;;;;;14.74;30.32;97693.80;105120;1262;61785;-66
2023/12/23 10:09:10;;;;;;;6.70;2.50;;;;;;;14.75;30.38;97692.28;104937;1263;64074;-66
2023/12/23 10:11:37;;;;;;;9.20;1.90;;;;;;;14.76;30.39;97692.93;105203;1261;61912;-61
2023/12/23 10:14:03;;;;;;;6.20;2.70;;;;;;;14.79;30.30;97700.45;105466;1258;59638;-61
2023/12/23 10:16:30;;;;;;;8.40;1.30;;;;;;;14.76;30.30;97693.91;105264;1263;64095;-63
2023/12/23 10:18:57;;;;;;;5.90;1.30;;;;;;;14.79;30.44;97692.59;105142;1263;61700;-65
2023/12/23 10:21:24;;;;;;;3.80;1.40;;;;;;;14.80;30.34;97694.45;105164;1262;64523;-62
2023/12/23 10:23:52;;;;;;;5.90;1.30;;;;;;;14.75;30.21;97694.98;105133;1261;59686;-64
2023/12/23 10:26:19;;;;;;;6.50;2.20;;;;;;;14.64;30.26;97695.55;105128;1257;59549;-64
2023/12/23 10:28:48;;;;;;;3.90;1.30;;;;;;;14.63;30.31;97692.70;105221;1261;64345;-66
2023/12/23 10:31:15;;;;;;;5.80;1.70;;;;;;;14.66;30.45;97696.50;105011;1261;61551;-65
2023/12/23 10:33:44;;;;;;;5.00;1.60;;;;;;;14.67;30.30;97701.83;105035;1263;73049;-62
2023/12/23 10:36:12;;;;;;;6.40;1.40;;;;;;;14.68;30.03;97703.54;105289;1257;59742;-62
2023/12/23 10:38:42;;;;;;;7.20;2.10;;;;;;;14.71;30.12;97699.62;105310;1261;59742;-61
2023/12/23 10:41:32;;;;;;;4.10;1.20;;;;;;;14.75;30.10;97698.73;105256;1261;63220;-61
2023/12/23 10:43:59;;;;;;;5.10;1.60;;;;;;;14.78;30.23;97694.14;105466;1262;61592;-61
2023/12/23 10:46:25;;;;;;;4.90;1.80;;;;;;;14.87;30.26;97692.67;104931;1261;63885;-63
2023/12/23 10:48:52;;;;;;;4.20;1.60;;;;;;;14.96;30.22;97691.27;105823;1260;59317;-71
2023/12/23 10:51:20;;;;;;;5.40;1.80;;;;;;;15.01;30.06;97692.35;105676;1258;59799;-64
2023/12/23 10:53:47;;;;;;;6.40;1.50;;;;;;;15.01;29.95;97697.94;104872;1257;64434;-61
2023/12/23 10:56:13;;;;;;;4.50;1.70;;;;;;;15.02;29.96;97702.66;105126;1261;61480;-65
2023/12/23 10:58:42;;;;;;;8.00;1.40;;;;;;;14.99;29.97;97697.59;104929;1261;64058;-66
2023/12/23 11:01:11;;;;;;;4.60;1.60;;;;;;;14.99;30.07;97699.65;105075;1257;60145;-63
2023/12/23 11:03:38;;;;;;;10.50;2.40;;;;;;;15.00;30.14;97703.65;105274;1261;59909;-63
2023/12/23 11:06:05;;;;;;;4.20;1.50;;;;;;;15.00;30.09;97705.89;105117;1257;64534;-65
2023/12/23 11:08:32;;;;;;;5.30;2.00;;;;;;;14.99;30.19;97710.74;105208;1261;61755;-62
2023/12/23 11:10:59;;;;;;;9.30;2.60;;;;;;;14.98;30.14;97716.30;105309;1259;63929;-63
2023/12/23 11:13:26;;;;;;;7.80;3.00;;;;;;;14.93;30.15;97718.70;105083;1257;59702;-63
2023/12/23 11:15:53;;;;;;;6.10;1.50;;;;;;;14.89;30.28;97716.25;105675;1257;59783;-66
2023/12/23 11:18:21;;;;;;;4.40;1.10;;;;;;;14.89;30.40;97719.27;105161;1261;64285;-61
2023/12/23 11:20:51;;;;;;;9.40;2.40;;;;;;;14.90;30.40;97713.39;104970;1263;61863;-65
2023/12/23 11:23:31;;;;;;;5.80;2.00;;;;;;;14.90;30.41;97711.39;105199;1261;63575;-62
2023/12/23 11:25:58;;;;;;;9.50;3.20;;;;;;;14.89;30.57;97716.23;105518;1258;59760;-62
2023/12/23 11:28:26;;;;;;;6.90;2.00;;;;;;;14.88;30.57;97718.90;105642;1257;59705;-61
2023/12/23 11:30:54;;;;;;;5.20;1.30;;;;;;;14.92;30.48;97718.23;105216;1260;64369;-59
2023/12/23 11:33:22;;;;;;;4.20;1.00;;;;;;;14.99;30.37;97719.31;105747;1257;61528;-61
2023/12/23 11:35:51;;;;;;;8.80;3.70;;;;;;;15.04;30.41;97714.28;105151;1258;64030;-63
2023/12/23 11:38:20;;;;;;;5.50;1.60;;;;;;;15.07;30.34;97714.88;105054;1257;59804;-61
2023/12/23 11:40:48;;;;;;;6.00;2.20;;;;;;;15.10;30.36;97718.69;105672;1257;59664;-59